sensor_id;sensor_type;location;lat;lon;timestamp;P1;durP1;ratioP1;P2;durP2;ratioP2
34491;SDS011;20737;49.908;8.126;2022-10-16T00:00:37;1.25;;;0.85;;
34491;SDS011;20737;49.908;8.126;2022-10-16T00:03:06;2.83;;;1.15;;
34491;SDS011;20737;49.908;8.126;2022-10-16T00:05:33;4.03;;;1.13;;
34491;SDS011;20737;49.908;8.126;2022-10-16T00:08:05;1.80;;;1.30;;
34491;SDS011;20737;49.908;8.126;2022-10-16T00:10:31;1.48;;;1.10;;
34491;SDS011;20737;49.908;8.126;2022-10-16T00:13:00;1.70;;;1.33;;
34491;SDS011;20737;49.908;8.126;2022-10-16T00:15:27;1.40;;;1.30;;
34491;SDS011;20737;49.908;8.126;2022-10-16T00:17:54;1.15;;;1.05;;
34491;SDS011;20737;49.908;8.126;2022-10-16T00:20:20;2.63;;;1.77;;
34491;SDS011;20737;49.908;8.126;2022-10-16T00:22:47;2.78;;;1.48;;
34491;SDS011;20737;49.908;8.126;2022-10-16T00:25:14;1.67;;;1.48;;
34491;SDS011;20737;49.908;8.126;2022-10-16T00:27:41;3.47;;;1.48;;
34491;SDS011;20737;49.908;8.126;2022-10-16T00:30:09;3.45;;;1.20;;
34491;SDS011;20737;49.908;8.126;2022-10-16T00:32:36;1.45;;;1.35;;
34491;SDS011;20737;49.908;8.126;2022-10-16T00:35:03;3.67;;;1.80;;
34491;SDS011;20737;49.908;8.126;2022-10-16T00:37:30;3.40;;;1.73;;
34491;SDS011;20737;49.908;8.126;2022-10-16T00:39:57;3.78;;;2.33;;
34491;SDS011;20737;49.908;8.126;2022-10-16T00:42:24;3.28;;;2.10;;
34491;SDS011;20737;49.908;8.126;2022-10-16T00:44:52;2.70;;;1.60;;
34491;SDS011;20737;49.908;8.126;2022-10-16T00:47:24;2.67;;;1.70;;
34491;SDS011;20737;49.908;8.126;2022-10-16T00:49:56;4.35;;;1.90;;
34491;SDS011;20737;49.908;8.126;2022-10-16T00:52:27;3.05;;;1.50;;
34491;SDS011;20737;49.908;8.126;2022-10-16T00:54:54;2.53;;;1.50;;
34491;SDS011;20737;49.908;8.126;2022-10-16T00:57:21;2.17;;;1.42;;
34491;SDS011;20737;49.908;8.126;2022-10-16T00:59:48;2.38;;;1.55;;
34491;SDS011;20737;49.908;8.126;2022-10-16T01:02:16;1.73;;;1.40;;
34491;SDS011;20737;49.908;8.126;2022-10-16T01:04:45;2.60;;;1.33;;
34491;SDS011;20737;49.908;8.126;2022-10-16T01:07:15;2.22;;;1.65;;
34491;SDS011;20737;49.908;8.126;2022-10-16T01:09:53;2.75;;;1.60;;
34491;SDS011;20737;49.908;8.126;2022-10-16T01:12:30;5.03;;;1.60;;
34491;SDS011;20737;49.908;8.126;2022-10-16T01:15:06;2.20;;;1.98;;
34491;SDS011;20737;49.908;8.126;2022-10-16T01:17:38;1.63;;;1.40;;
34491;SDS011;20737;49.908;8.126;2022-10-16T01:20:13;2.05;;;1.60;;
34491;SDS011;20737;49.908;8.126;2022-10-16T01:22:49;2.20;;;1.70;;
34491;SDS011;20737;49.908;8.126;2022-10-16T01:25:33;2.28;;;1.83;;
34491;SDS011;20737;49.908;8.126;2022-10-16T01:28:16;2.15;;;1.95;;
34491;SDS011;20737;49.908;8.126;2022-10-16T01:30:45;3.03;;;1.40;;
34491;SDS011;20737;49.908;8.126;2022-10-16T01:33:13;3.15;;;2.00;;
34491;SDS011;20737;49.908;8.126;2022-10-16T01:35:45;2.70;;;1.80;;
34491;SDS011;20737;49.908;8.126;2022-10-16T01:38:15;3.70;;;1.67;;
34491;SDS011;20737;49.908;8.126;2022-10-16T01:40:46;2.13;;;1.60;;
34491;SDS011;20737;49.908;8.126;2022-10-16T01:43:19;2.47;;;1.67;;
34491;SDS011;20737;49.908;8.126;2022-10-16T01:45:48;2.75;;;1.88;;
34491;SDS011;20737;49.908;8.126;2022-10-16T01:48:18;5.53;;;1.75;;
34491;SDS011;20737;49.908;8.126;2022-10-16T01:50:49;2.95;;;1.85;;
34491;SDS011;20737;49.908;8.126;2022-10-16T01:53:20;2.13;;;1.75;;
34491;SDS011;20737;49.908;8.126;2022-10-16T01:55:47;2.53;;;2.33;;
34491;SDS011;20737;49.908;8.126;2022-10-16T01:58:17;3.97;;;2.63;;
34491;SDS011;20737;49.908;8.126;2022-10-16T02:00:45;2.72;;;1.95;;
34491;SDS011;20737;49.908;8.126;2022-10-16T02:03:14;3.10;;;2.83;;
34491;SDS011;20737;49.908;8.126;2022-10-16T02:05:44;2.45;;;2.25;;
34491;SDS011;20737;49.908;8.126;2022-10-16T02:08:12;3.03;;;2.55;;
34491;SDS011;20737;49.908;8.126;2022-10-16T02:10:39;2.70;;;2.47;;
34491;SDS011;20737;49.908;8.126;2022-10-16T02:13:07;3.17;;;2.90;;
34491;SDS011;20737;49.908;8.126;2022-10-16T02:15:38;3.05;;;2.80;;
34491;SDS011;20737;49.908;8.126;2022-10-16T02:18:05;2.83;;;2.63;;
34491;SDS011;20737;49.908;8.126;2022-10-16T02:20:34;4.32;;;2.50;;
34491;SDS011;20737;49.908;8.126;2022-10-16T02:23:06;2.27;;;2.17;;
34491;SDS011;20737;49.908;8.126;2022-10-16T02:25:40;3.38;;;2.50;;
34491;SDS011;20737;49.908;8.126;2022-10-16T02:28:11;2.40;;;2.20;;
34491;SDS011;20737;49.908;8.126;2022-10-16T02:30:44;3.30;;;3.00;;
34491;SDS011;20737;49.908;8.126;2022-10-16T02:33:15;3.00;;;2.35;;
34491;SDS011;20737;49.908;8.126;2022-10-16T02:35:44;3.25;;;2.70;;
34491;SDS011;20737;49.908;8.126;2022-10-16T02:38:12;6.80;;;3.92;;
34491;SDS011;20737;49.908;8.126;2022-10-16T02:40:41;3.35;;;2.30;;
34491;SDS011;20737;49.908;8.126;2022-10-16T02:43:08;2.50;;;2.30;;
34491;SDS011;20737;49.908;8.126;2022-10-16T02:45:36;2.70;;;2.50;;
34491;SDS011;20737;49.908;8.126;2022-10-16T02:48:05;2.63;;;2.42;;
34491;SDS011;20737;49.908;8.126;2022-10-16T02:50:32;2.45;;;2.25;;
34491;SDS011;20737;49.908;8.126;2022-10-16T02:52:58;2.90;;;2.70;;
34491;SDS011;20737;49.908;8.126;2022-10-16T02:55:25;2.80;;;2.40;;
34491;SDS011;20737;49.908;8.126;2022-10-16T02:57:52;2.50;;;2.30;;
34491;SDS011;20737;49.908;8.126;2022-10-16T03:00:20;4.65;;;2.33;;
34491;SDS011;20737;49.908;8.126;2022-10-16T03:02:47;2.38;;;2.17;;
34491;SDS011;20737;49.908;8.126;2022-10-16T03:05:15;2.63;;;2.35;;
34491;SDS011;20737;49.908;8.126;2022-10-16T03:07:42;2.40;;;2.20;;
34491;SDS011;20737;49.908;8.126;2022-10-16T03:10:09;2.88;;;2.03;;
34491;SDS011;20737;49.908;8.126;2022-10-16T03:12:35;3.40;;;2.28;;
34491;SDS011;20737;49.908;8.126;2022-10-16T03:15:02;4.53;;;2.03;;
34491;SDS011;20737;49.908;8.126;2022-10-16T03:17:31;3.78;;;2.10;;
34491;SDS011;20737;49.908;8.126;2022-10-16T03:19:57;2.00;;;1.80;;
34491;SDS011;20737;49.908;8.126;2022-10-16T03:22:26;3.53;;;2.03;;
34491;SDS011;20737;49.908;8.126;2022-10-16T03:24:52;3.38;;;1.95;;
34491;SDS011;20737;49.908;8.126;2022-10-16T03:27:19;2.30;;;1.95;;
34491;SDS011;20737;49.908;8.126;2022-10-16T03:29:46;2.10;;;1.95;;
34491;SDS011;20737;49.908;8.126;2022-10-16T03:32:12;1.83;;;1.73;;
34491;SDS011;20737;49.908;8.126;2022-10-16T03:34:39;3.53;;;2.13;;
34491;SDS011;20737;49.908;8.126;2022-10-16T03:37:06;2.30;;;1.73;;
34491;SDS011;20737;49.908;8.126;2022-10-16T03:39:34;1.88;;;1.70;;
34491;SDS011;20737;49.908;8.126;2022-10-16T03:42:01;1.75;;;1.65;;
34491;SDS011;20737;49.908;8.126;2022-10-16T03:44:27;2.55;;;1.73;;
34491;SDS011;20737;49.908;8.126;2022-10-16T03:46:54;1.98;;;1.73;;
34491;SDS011;20737;49.908;8.126;2022-10-16T03:49:21;1.80;;;1.70;;
34491;SDS011;20737;49.908;8.126;2022-10-16T03:51:48;3.03;;;1.42;;
34491;SDS011;20737;49.908;8.126;2022-10-16T03:54:14;2.00;;;1.42;;
34491;SDS011;20737;49.908;8.126;2022-10-16T03:56:42;2.95;;;1.40;;
34491;SDS011;20737;49.908;8.126;2022-10-16T03:59:09;1.65;;;1.50;;
34491;SDS011;20737;49.908;8.126;2022-10-16T04:01:36;1.73;;;1.35;;
34491;SDS011;20737;49.908;8.126;2022-10-16T04:04:02;1.83;;;1.73;;
34491;SDS011;20737;49.908;8.126;2022-10-16T04:06:29;1.38;;;1.27;;
34491;SDS011;20737;49.908;8.126;2022-10-16T04:08:56;1.85;;;1.50;;
34491;SDS011;20737;49.908;8.126;2022-10-16T04:11:23;1.65;;;1.55;;
34491;SDS011;20737;49.908;8.126;2022-10-16T04:13:51;1.50;;;1.40;;
34491;SDS011;20737;49.908;8.126;2022-10-16T04:16:17;6.88;;;1.48;;
34491;SDS011;20737;49.908;8.126;2022-10-16T04:18:44;1.33;;;1.23;;
34491;SDS011;20737;49.908;8.126;2022-10-16T04:21:11;4.28;;;1.50;;
34491;SDS011;20737;49.908;8.126;2022-10-16T04:23:38;2.85;;;1.40;;
34491;SDS011;20737;49.908;8.126;2022-10-16T04:26:04;2.00;;;1.65;;
34491;SDS011;20737;49.908;8.126;2022-10-16T04:28:31;3.95;;;1.40;;
34491;SDS011;20737;49.908;8.126;2022-10-16T04:30:59;4.03;;;1.48;;
34491;SDS011;20737;49.908;8.126;2022-10-16T04:33:26;3.45;;;1.40;;
34491;SDS011;20737;49.908;8.126;2022-10-16T04:35:56;1.50;;;1.40;;
34491;SDS011;20737;49.908;8.126;2022-10-16T04:38:23;3.67;;;1.45;;
34491;SDS011;20737;49.908;8.126;2022-10-16T04:40:50;1.35;;;1.25;;
34491;SDS011;20737;49.908;8.126;2022-10-16T04:43:16;2.45;;;1.33;;
34491;SDS011;20737;49.908;8.126;2022-10-16T04:45:43;1.42;;;1.33;;
34491;SDS011;20737;49.908;8.126;2022-10-16T04:48:11;1.88;;;1.55;;
34491;SDS011;20737;49.908;8.126;2022-10-16T04:50:38;1.73;;;1.33;;
34491;SDS011;20737;49.908;8.126;2022-10-16T04:53:05;1.48;;;1.35;;
34491;SDS011;20737;49.908;8.126;2022-10-16T04:55:32;1.10;;;1.08;;
34491;SDS011;20737;49.908;8.126;2022-10-16T04:57:59;3.50;;;1.25;;
34491;SDS011;20737;49.908;8.126;2022-10-16T05:00:25;1.70;;;1.60;;
34491;SDS011;20737;49.908;8.126;2022-10-16T05:02:52;1.60;;;1.40;;
34491;SDS011;20737;49.908;8.126;2022-10-16T05:05:20;1.85;;;1.75;;
34491;SDS011;20737;49.908;8.126;2022-10-16T05:07:48;1.65;;;1.52;;
34491;SDS011;20737;49.908;8.126;2022-10-16T05:10:15;2.03;;;1.80;;
34491;SDS011;20737;49.908;8.126;2022-10-16T05:12:42;2.03;;;1.60;;
34491;SDS011;20737;49.908;8.126;2022-10-16T05:15:09;2.05;;;1.83;;
34491;SDS011;20737;49.908;8.126;2022-10-16T05:17:36;5.53;;;1.83;;
34491;SDS011;20737;49.908;8.126;2022-10-16T05:20:03;3.00;;;1.60;;
34491;SDS011;20737;49.908;8.126;2022-10-16T05:22:32;1.83;;;1.73;;
34491;SDS011;20737;49.908;8.126;2022-10-16T05:24:59;1.98;;;1.63;;
34491;SDS011;20737;49.908;8.126;2022-10-16T05:27:25;1.92;;;1.60;;
34491;SDS011;20737;49.908;8.126;2022-10-16T05:29:52;1.75;;;1.52;;
34491;SDS011;20737;49.908;8.126;2022-10-16T05:32:19;1.70;;;1.52;;
34491;SDS011;20737;49.908;8.126;2022-10-16T05:34:46;2.15;;;1.75;;
34491;SDS011;20737;49.908;8.126;2022-10-16T05:37:12;3.45;;;1.63;;
34491;SDS011;20737;49.908;8.126;2022-10-16T05:39:41;2.33;;;1.25;;
34491;SDS011;20737;49.908;8.126;2022-10-16T05:42:07;1.80;;;1.50;;
34491;SDS011;20737;49.908;8.126;2022-10-16T05:44:34;2.15;;;1.42;;
34491;SDS011;20737;49.908;8.126;2022-10-16T05:47:01;2.42;;;1.02;;
34491;SDS011;20737;49.908;8.126;2022-10-16T05:49:27;2.15;;;1.25;;
34491;SDS011;20737;49.908;8.126;2022-10-16T05:51:54;3.58;;;1.52;;
34491;SDS011;20737;49.908;8.126;2022-10-16T05:54:21;1.88;;;1.40;;
34491;SDS011;20737;49.908;8.126;2022-10-16T05:56:49;1.63;;;1.52;;
34491;SDS011;20737;49.908;8.126;2022-10-16T05:59:16;2.38;;;1.95;;
34491;SDS011;20737;49.908;8.126;2022-10-16T06:01:42;4.35;;;1.60;;
34491;SDS011;20737;49.908;8.126;2022-10-16T06:04:09;1.85;;;1.67;;
34491;SDS011;20737;49.908;8.126;2022-10-16T06:06:36;1.92;;;1.60;;
34491;SDS011;20737;49.908;8.126;2022-10-16T06:09:03;2.97;;;1.70;;
34491;SDS011;20737;49.908;8.126;2022-10-16T06:11:30;1.80;;;1.70;;
34491;SDS011;20737;49.908;8.126;2022-10-16T06:14:00;1.73;;;1.60;;
34491;SDS011;20737;49.908;8.126;2022-10-16T06:16:31;1.63;;;1.52;;
34491;SDS011;20737;49.908;8.126;2022-10-16T06:18:58;2.22;;;1.77;;
34491;SDS011;20737;49.908;8.126;2022-10-16T06:21:25;1.95;;;1.75;;
34491;SDS011;20737;49.908;8.126;2022-10-16T06:23:53;1.85;;;1.70;;
34491;SDS011;20737;49.908;8.126;2022-10-16T06:26:21;2.08;;;1.65;;
34491;SDS011;20737;49.908;8.126;2022-10-16T06:28:49;1.80;;;1.63;;
34491;SDS011;20737;49.908;8.126;2022-10-16T06:31:17;2.00;;;1.60;;
34491;SDS011;20737;49.908;8.126;2022-10-16T06:33:44;1.80;;;1.70;;
34491;SDS011;20737;49.908;8.126;2022-10-16T06:36:12;3.70;;;1.98;;
34491;SDS011;20737;49.908;8.126;2022-10-16T06:38:40;1.95;;;1.85;;
34491;SDS011;20737;49.908;8.126;2022-10-16T06:41:09;3.78;;;1.80;;
34491;SDS011;20737;49.908;8.126;2022-10-16T06:43:37;1.80;;;1.70;;
34491;SDS011;20737;49.908;8.126;2022-10-16T06:46:04;3.53;;;1.70;;
34491;SDS011;20737;49.908;8.126;2022-10-16T06:48:34;2.20;;;1.98;;
34491;SDS011;20737;49.908;8.126;2022-10-16T06:51:01;3.25;;;2.17;;
34491;SDS011;20737;49.908;8.126;2022-10-16T06:53:31;3.05;;;2.33;;
34491;SDS011;20737;49.908;8.126;2022-10-16T06:56:06;2.95;;;2.53;;
34491;SDS011;20737;49.908;8.126;2022-10-16T06:58:33;5.70;;;3.42;;
34491;SDS011;20737;49.908;8.126;2022-10-16T07:00:59;7.00;;;3.42;;
34491;SDS011;20737;49.908;8.126;2022-10-16T07:03:26;3.97;;;2.70;;
34491;SDS011;20737;49.908;8.126;2022-10-16T07:05:54;3.03;;;2.75;;
34491;SDS011;20737;49.908;8.126;2022-10-16T07:08:21;3.10;;;2.65;;
34491;SDS011;20737;49.908;8.126;2022-10-16T07:10:48;4.00;;;2.63;;
34491;SDS011;20737;49.908;8.126;2022-10-16T07:13:23;2.40;;;2.10;;
34491;SDS011;20737;49.908;8.126;2022-10-16T07:15:50;4.60;;;3.38;;
34491;SDS011;20737;49.908;8.126;2022-10-16T07:18:17;3.97;;;2.80;;
34491;SDS011;20737;49.908;8.126;2022-10-16T07:20:44;2.35;;;2.03;;
34491;SDS011;20737;49.908;8.126;2022-10-16T07:23:12;2.70;;;2.03;;
34491;SDS011;20737;49.908;8.126;2022-10-16T07:25:39;4.35;;;2.10;;
34491;SDS011;20737;49.908;8.126;2022-10-16T07:28:05;2.17;;;1.98;;
34491;SDS011;20737;49.908;8.126;2022-10-16T07:30:34;2.55;;;2.35;;
34491;SDS011;20737;49.908;8.126;2022-10-16T07:33:02;4.45;;;2.75;;
34491;SDS011;20737;49.908;8.126;2022-10-16T07:35:29;10.50;;;9.65;;
34491;SDS011;20737;49.908;8.126;2022-10-16T07:37:56;4.85;;;4.35;;
34491;SDS011;20737;49.908;8.126;2022-10-16T07:40:24;11.50;;;7.53;;
34491;SDS011;20737;49.908;8.126;2022-10-16T07:42:52;8.95;;;6.53;;
34491;SDS011;20737;49.908;8.126;2022-10-16T07:45:18;7.18;;;4.68;;
34491;SDS011;20737;49.908;8.126;2022-10-16T07:47:45;5.38;;;3.85;;
34491;SDS011;20737;49.908;8.126;2022-10-16T07:50:12;5.28;;;3.53;;
34491;SDS011;20737;49.908;8.126;2022-10-16T07:52:39;5.28;;;4.38;;
34491;SDS011;20737;49.908;8.126;2022-10-16T07:55:06;5.03;;;3.55;;
34491;SDS011;20737;49.908;8.126;2022-10-16T07:57:34;4.38;;;3.90;;
34491;SDS011;20737;49.908;8.126;2022-10-16T08:00:01;3.42;;;3.10;;
34491;SDS011;20737;49.908;8.126;2022-10-16T08:02:29;3.25;;;2.83;;
34491;SDS011;20737;49.908;8.126;2022-10-16T08:04:55;2.97;;;2.40;;
34491;SDS011;20737;49.908;8.126;2022-10-16T08:07:22;2.42;;;2.22;;
34491;SDS011;20737;49.908;8.126;2022-10-16T08:09:49;2.88;;;2.65;;
34491;SDS011;20737;49.908;8.126;2022-10-16T08:12:16;4.93;;;4.05;;
34491;SDS011;20737;49.908;8.126;2022-10-16T08:14:44;4.47;;;3.90;;
34491;SDS011;20737;49.908;8.126;2022-10-16T08:17:13;5.00;;;4.60;;
34491;SDS011;20737;49.908;8.126;2022-10-16T08:19:40;5.03;;;4.53;;
34491;SDS011;20737;49.908;8.126;2022-10-16T08:22:10;5.40;;;2.88;;
34491;SDS011;20737;49.908;8.126;2022-10-16T08:24:37;2.72;;;2.53;;
34491;SDS011;20737;49.908;8.126;2022-10-16T08:27:04;2.85;;;2.65;;
34491;SDS011;20737;49.908;8.126;2022-10-16T08:29:31;3.45;;;2.42;;
34491;SDS011;20737;49.908;8.126;2022-10-16T08:31:59;2.63;;;2.42;;
34491;SDS011;20737;49.908;8.126;2022-10-16T08:34:25;4.45;;;2.55;;
34491;SDS011;20737;49.908;8.126;2022-10-16T08:36:52;3.83;;;2.63;;
34491;SDS011;20737;49.908;8.126;2022-10-16T08:39:19;5.85;;;3.30;;
34491;SDS011;20737;49.908;8.126;2022-10-16T08:44:43;2.42;;;2.20;;
34491;SDS011;20737;49.908;8.126;2022-10-16T08:47:25;8.02;;;3.20;;
34491;SDS011;20737;49.908;8.126;2022-10-16T08:50:02;2.85;;;2.42;;
34491;SDS011;20737;49.908;8.126;2022-10-16T08:52:38;2.38;;;2.17;;
34491;SDS011;20737;49.908;8.126;2022-10-16T08:55:08;3.20;;;2.60;;
34491;SDS011;20737;49.908;8.126;2022-10-16T08:57:49;2.78;;;2.58;;
34491;SDS011;20737;49.908;8.126;2022-10-16T09:00:16;6.50;;;2.28;;
34491;SDS011;20737;49.908;8.126;2022-10-16T09:02:46;2.40;;;2.20;;
34491;SDS011;20737;49.908;8.126;2022-10-16T09:05:19;2.88;;;2.67;;
34491;SDS011;20737;49.908;8.126;2022-10-16T09:08:03;2.47;;;2.28;;
34491;SDS011;20737;49.908;8.126;2022-10-16T09:10:38;2.75;;;2.45;;
34491;SDS011;20737;49.908;8.126;2022-10-16T09:13:14;2.83;;;2.30;;
34491;SDS011;20737;49.908;8.126;2022-10-16T09:15:48;4.60;;;2.03;;
34491;SDS011;20737;49.908;8.126;2022-10-16T09:18:24;2.08;;;1.88;;
34491;SDS011;20737;49.908;8.126;2022-10-16T09:20:59;3.03;;;1.60;;
34491;SDS011;20737;49.908;8.126;2022-10-16T09:23:33;1.70;;;1.50;;
34491;SDS011;20737;49.908;8.126;2022-10-16T09:26:02;2.95;;;1.83;;
34491;SDS011;20737;49.908;8.126;2022-10-16T09:28:30;2.03;;;1.70;;
34491;SDS011;20737;49.908;8.126;2022-10-16T09:30:57;3.92;;;1.77;;
34491;SDS011;20737;49.908;8.126;2022-10-16T09:33:27;1.88;;;1.70;;
34491;SDS011;20737;49.908;8.126;2022-10-16T09:35:59;2.75;;;1.60;;
34491;SDS011;20737;49.908;8.126;2022-10-16T09:38:29;3.03;;;1.48;;
34491;SDS011;20737;49.908;8.126;2022-10-16T09:40:58;1.38;;;1.27;;
34491;SDS011;20737;49.908;8.126;2022-10-16T09:43:26;1.50;;;1.30;;
34491;SDS011;20737;49.908;8.126;2022-10-16T09:45:59;2.38;;;1.90;;
34491;SDS011;20737;49.908;8.126;2022-10-16T09:48:30;2.13;;;1.60;;
34491;SDS011;20737;49.908;8.126;2022-10-16T09:51:01;1.83;;;1.50;;
34491;SDS011;20737;49.908;8.126;2022-10-16T09:53:39;1.00;;;0.98;;
34491;SDS011;20737;49.908;8.126;2022-10-16T09:56:09;1.90;;;1.17;;
34491;SDS011;20737;49.908;8.126;2022-10-16T09:58:41;0.82;;;0.82;;
34491;SDS011;20737;49.908;8.126;2022-10-16T10:01:11;1.35;;;1.17;;
34491;SDS011;20737;49.908;8.126;2022-10-16T10:03:42;2.50;;;1.00;;
34491;SDS011;20737;49.908;8.126;2022-10-16T10:06:17;1.50;;;1.10;;
34491;SDS011;20737;49.908;8.126;2022-10-16T10:08:52;1.60;;;1.50;;
34491;SDS011;20737;49.908;8.126;2022-10-16T10:14:06;1.27;;;1.17;;
34491;SDS011;20737;49.908;8.126;2022-10-16T10:16:41;1.20;;;1.10;;
34491;SDS011;20737;49.908;8.126;2022-10-16T10:19:10;1.27;;;1.17;;
34491;SDS011;20737;49.908;8.126;2022-10-16T10:21:40;1.52;;;1.10;;
34491;SDS011;20737;49.908;8.126;2022-10-16T10:24:09;1.63;;;1.27;;
34491;SDS011;20737;49.908;8.126;2022-10-16T10:26:37;1.40;;;1.30;;
34491;SDS011;20737;49.908;8.126;2022-10-16T10:29:09;1.55;;;1.20;;
34491;SDS011;20737;49.908;8.126;2022-10-16T10:31:45;1.50;;;1.40;;
34491;SDS011;20737;49.908;8.126;2022-10-16T10:34:25;1.38;;;1.27;;
34491;SDS011;20737;49.908;8.126;2022-10-16T10:37:08;4.63;;;1.30;;
34491;SDS011;20737;49.908;8.126;2022-10-16T10:39:46;1.30;;;1.20;;
34491;SDS011;20737;49.908;8.126;2022-10-16T10:42:21;1.35;;;1.10;;
34491;SDS011;20737;49.908;8.126;2022-10-16T10:45:00;2.72;;;1.30;;
34491;SDS011;20737;49.908;8.126;2022-10-16T10:47:46;1.77;;;1.20;;
34491;SDS011;20737;49.908;8.126;2022-10-16T10:50:24;1.38;;;1.30;;
34491;SDS011;20737;49.908;8.126;2022-10-16T10:52:58;2.80;;;1.20;;
34491;SDS011;20737;49.908;8.126;2022-10-16T10:55:31;3.22;;;1.40;;
34491;SDS011;20737;49.908;8.126;2022-10-16T10:58:15;1.40;;;1.25;;
34491;SDS011;20737;49.908;8.126;2022-10-16T11:01:04;1.20;;;1.05;;
34491;SDS011;20737;49.908;8.126;2022-10-16T11:03:41;2.70;;;1.27;;
34491;SDS011;20737;49.908;8.126;2022-10-16T11:06:28;3.70;;;1.40;;
34491;SDS011;20737;49.908;8.126;2022-10-16T11:08:59;2.70;;;1.40;;
34491;SDS011;20737;49.908;8.126;2022-10-16T11:11:29;1.20;;;1.10;;
34491;SDS011;20737;49.908;8.126;2022-10-16T11:14:02;2.28;;;1.40;;
34491;SDS011;20737;49.908;8.126;2022-10-16T11:16:34;2.80;;;1.35;;
34491;SDS011;20737;49.908;8.126;2022-10-16T11:19:05;1.60;;;1.20;;
34491;SDS011;20737;49.908;8.126;2022-10-16T11:21:39;1.50;;;1.15;;
34491;SDS011;20737;49.908;8.126;2022-10-16T11:24:16;1.60;;;1.50;;
34491;SDS011;20737;49.908;8.126;2022-10-16T11:26:48;2.40;;;1.20;;
34491;SDS011;20737;49.908;8.126;2022-10-16T11:29:23;1.33;;;1.23;;
34491;SDS011;20737;49.908;8.126;2022-10-16T11:31:55;1.45;;;1.02;;
34491;SDS011;20737;49.908;8.126;2022-10-16T11:34:27;1.30;;;1.05;;
34491;SDS011;20737;49.908;8.126;2022-10-16T11:37:01;2.25;;;1.20;;
34491;SDS011;20737;49.908;8.126;2022-10-16T11:39:31;1.63;;;1.13;;
34491;SDS011;20737;49.908;8.126;2022-10-16T11:41:59;1.95;;;1.17;;
34491;SDS011;20737;49.908;8.126;2022-10-16T11:44:35;1.05;;;1.02;;
34491;SDS011;20737;49.908;8.126;2022-10-16T11:47:11;2.00;;;1.17;;
34491;SDS011;20737;49.908;8.126;2022-10-16T11:49:49;1.20;;;1.10;;
34491;SDS011;20737;49.908;8.126;2022-10-16T11:52:25;1.73;;;1.00;;
34491;SDS011;20737;49.908;8.126;2022-10-16T11:54:57;1.05;;;0.95;;
34491;SDS011;20737;49.908;8.126;2022-10-16T11:57:31;1.08;;;0.95;;
34491;SDS011;20737;49.908;8.126;2022-10-16T12:00:01;3.05;;;1.23;;
34491;SDS011;20737;49.908;8.126;2022-10-16T12:02:33;1.77;;;1.10;;
34491;SDS011;20737;49.908;8.126;2022-10-16T12:05:14;0.73;;;0.73;;
34491;SDS011;20737;49.908;8.126;2022-10-16T12:07:50;1.08;;;1.00;;
34491;SDS011;20737;49.908;8.126;2022-10-16T12:10:26;1.83;;;0.90;;
34491;SDS011;20737;49.908;8.126;2022-10-16T12:12:56;2.47;;;0.90;;
34491;SDS011;20737;49.908;8.126;2022-10-16T12:15:24;1.10;;;0.90;;
34491;SDS011;20737;49.908;8.126;2022-10-16T12:17:52;1.40;;;0.85;;
34491;SDS011;20737;49.908;8.126;2022-10-16T12:20:21;1.00;;;1.00;;
34491;SDS011;20737;49.908;8.126;2022-10-16T12:22:52;1.02;;;1.00;;
34491;SDS011;20737;49.908;8.126;2022-10-16T12:25:22;1.27;;;1.05;;
34491;SDS011;20737;49.908;8.126;2022-10-16T12:27:57;2.97;;;1.10;;
34491;SDS011;20737;49.908;8.126;2022-10-16T12:30:29;1.48;;;1.15;;
34491;SDS011;20737;49.908;8.126;2022-10-16T12:32:58;2.45;;;1.42;;
34491;SDS011;20737;49.908;8.126;2022-10-16T12:35:28;1.88;;;1.00;;
34491;SDS011;20737;49.908;8.126;2022-10-16T12:38:11;1.55;;;1.30;;
34491;SDS011;20737;49.908;8.126;2022-10-16T12:40:41;4.45;;;1.10;;
34491;SDS011;20737;49.908;8.126;2022-10-16T12:43:11;1.30;;;1.20;;
34491;SDS011;20737;49.908;8.126;2022-10-16T12:45:59;1.40;;;1.30;;
34491;SDS011;20737;49.908;8.126;2022-10-16T12:48:27;1.77;;;1.17;;
34491;SDS011;20737;49.908;8.126;2022-10-16T12:50:54;2.45;;;1.15;;
34491;SDS011;20737;49.908;8.126;2022-10-16T12:53:23;1.77;;;1.40;;
34491;SDS011;20737;49.908;8.126;2022-10-16T12:55:52;1.50;;;1.40;;
34491;SDS011;20737;49.908;8.126;2022-10-16T13:01:29;1.75;;;1.20;;
34491;SDS011;20737;49.908;8.126;2022-10-16T13:07:19;1.73;;;1.50;;
34491;SDS011;20737;49.908;8.126;2022-10-16T13:10:00;1.20;;;1.10;;
34491;SDS011;20737;49.908;8.126;2022-10-16T13:12:55;2.05;;;1.15;;
34491;SDS011;20737;49.908;8.126;2022-10-16T13:15:48;1.45;;;1.35;;
34491;SDS011;20737;49.908;8.126;2022-10-16T13:18:28;1.65;;;1.33;;
34491;SDS011;20737;49.908;8.126;2022-10-16T13:21:12;2.35;;;1.60;;
34491;SDS011;20737;49.908;8.126;2022-10-16T13:23:48;1.40;;;1.30;;
34491;SDS011;20737;49.908;8.126;2022-10-16T13:26:26;1.38;;;1.23;;
34491;SDS011;20737;49.908;8.126;2022-10-16T13:29:01;2.85;;;1.50;;
34491;SDS011;20737;49.908;8.126;2022-10-16T13:31:29;1.75;;;1.40;;
34491;SDS011;20737;49.908;8.126;2022-10-16T13:33:58;3.70;;;1.80;;
34491;SDS011;20737;49.908;8.126;2022-10-16T13:36:26;1.60;;;1.50;;
34491;SDS011;20737;49.908;8.126;2022-10-16T13:39:01;1.98;;;1.80;;
34491;SDS011;20737;49.908;8.126;2022-10-16T13:41:38;2.08;;;1.55;;
34491;SDS011;20737;49.908;8.126;2022-10-16T13:44:05;2.08;;;1.88;;
34491;SDS011;20737;49.908;8.126;2022-10-16T13:46:41;1.77;;;1.60;;
34491;SDS011;20737;49.908;8.126;2022-10-16T13:49:11;2.30;;;1.80;;
34491;SDS011;20737;49.908;8.126;2022-10-16T13:51:40;1.60;;;1.50;;
34491;SDS011;20737;49.908;8.126;2022-10-16T13:54:09;3.08;;;2.38;;
34491;SDS011;20737;49.908;8.126;2022-10-16T13:56:38;2.53;;;2.22;;
34491;SDS011;20737;49.908;8.126;2022-10-16T13:59:06;2.25;;;1.90;;
34491;SDS011;20737;49.908;8.126;2022-10-16T14:01:49;3.00;;;2.30;;
34491;SDS011;20737;49.908;8.126;2022-10-16T14:04:18;2.47;;;2.25;;
34491;SDS011;20737;49.908;8.126;2022-10-16T14:06:46;2.63;;;2.42;;
34491;SDS011;20737;49.908;8.126;2022-10-16T14:09:18;2.30;;;2.10;;
34491;SDS011;20737;49.908;8.126;2022-10-16T14:11:51;2.45;;;2.20;;
34491;SDS011;20737;49.908;8.126;2022-10-16T14:14:20;2.97;;;2.08;;
34491;SDS011;20737;49.908;8.126;2022-10-16T14:16:48;2.65;;;2.45;;
34491;SDS011;20737;49.908;8.126;2022-10-16T14:19:20;2.30;;;2.20;;
34491;SDS011;20737;49.908;8.126;2022-10-16T14:21:50;2.50;;;2.30;;
34491;SDS011;20737;49.908;8.126;2022-10-16T14:24:27;4.05;;;2.30;;
34491;SDS011;20737;49.908;8.126;2022-10-16T14:26:59;2.30;;;2.20;;
34491;SDS011;20737;49.908;8.126;2022-10-16T14:29:28;3.10;;;2.10;;
34491;SDS011;20737;49.908;8.126;2022-10-16T14:31:56;2.38;;;2.22;;
34491;SDS011;20737;49.908;8.126;2022-10-16T14:34:25;2.75;;;2.20;;
34491;SDS011;20737;49.908;8.126;2022-10-16T14:36:53;3.72;;;2.42;;
34491;SDS011;20737;49.908;8.126;2022-10-16T14:39:21;3.40;;;2.05;;
34491;SDS011;20737;49.908;8.126;2022-10-16T14:41:51;5.57;;;2.00;;
34491;SDS011;20737;49.908;8.126;2022-10-16T14:44:23;2.90;;;2.25;;
34491;SDS011;20737;49.908;8.126;2022-10-16T14:46:54;4.53;;;2.10;;
34491;SDS011;20737;49.908;8.126;2022-10-16T14:49:21;2.40;;;2.20;;
34491;SDS011;20737;49.908;8.126;2022-10-16T14:51:49;3.67;;;2.25;;
34491;SDS011;20737;49.908;8.126;2022-10-16T14:54:17;2.35;;;2.15;;
34491;SDS011;20737;49.908;8.126;2022-10-16T14:56:46;4.03;;;2.10;;
34491;SDS011;20737;49.908;8.126;2022-10-16T14:59:15;3.78;;;2.20;;
34491;SDS011;20737;49.908;8.126;2022-10-16T15:01:46;2.47;;;2.28;;
34491;SDS011;20737;49.908;8.126;2022-10-16T15:04:13;2.40;;;2.20;;
34491;SDS011;20737;49.908;8.126;2022-10-16T15:06:41;2.17;;;1.98;;
34491;SDS011;20737;49.908;8.126;2022-10-16T15:09:08;2.60;;;2.40;;
34491;SDS011;20737;49.908;8.126;2022-10-16T15:11:35;2.80;;;2.40;;
34491;SDS011;20737;49.908;8.126;2022-10-16T15:14:02;2.88;;;2.33;;
34491;SDS011;20737;49.908;8.126;2022-10-16T15:16:29;2.60;;;2.38;;